createdAt,value
2018-12-24T00:03:17.125Z,2.20
2018-12-24T00:06:06.865Z,2.10
2018-12-24T00:08:57.483Z,2.17
2018-12-24T00:11:47.046Z,2.13
2018-12-24T00:14:36.767Z,2.17
2018-12-24T00:17:26.241Z,2.00
2018-12-24T00:20:15.706Z,2.20
2018-12-24T00:23:05.967Z,2.10
2018-12-24T00:25:55.454Z,2.00
2018-12-24T00:28:44.914Z,2.00
2018-12-24T00:31:34.762Z,2.00
2018-12-24T00:34:25.071Z,1.90
2018-12-24T00:37:42.367Z,2.03
2018-12-24T00:40:32.619Z,2.07
2018-12-24T00:43:22.345Z,2.00
2018-12-24T00:46:12.353Z,2.00
2018-12-24T00:49:02.278Z,2.07
2018-12-24T00:51:52.052Z,1.90
2018-12-24T00:54:42.571Z,2.20
2018-12-24T00:57:33.048Z,2.00
2018-12-24T01:00:41.963Z,2.00
2018-12-24T01:03:52.014Z,2.20
2018-12-24T01:06:41.978Z,2.00
2018-12-24T01:09:31.481Z,2.10
2018-12-24T01:12:24.621Z,1.90
2018-12-24T01:15:12.824Z,1.90
2018-12-24T01:18:03.857Z,1.93
2018-12-24T01:20:54.080Z,1.90
2018-12-24T01:23:43.786Z,2.00
2018-12-24T01:26:33.912Z,1.90
2018-12-24T01:29:24.059Z,1.93
2018-12-24T01:32:14.295Z,1.87
2018-12-24T01:35:04.691Z,1.90
2018-12-24T01:37:54.448Z,1.80
2018-12-24T01:40:44.262Z,1.90
2018-12-24T01:43:34.260Z,1.80
2018-12-24T01:46:24.266Z,1.80
2018-12-24T01:49:15.002Z,1.93
2018-12-24T01:52:04.752Z,1.80
2018-12-24T01:54:54.912Z,1.90
2018-12-24T01:57:44.900Z,1.80
2018-12-24T02:00:34.661Z,1.80
2018-12-24T02:03:24.916Z,1.83
2018-12-24T02:06:14.909Z,1.80
2018-12-24T02:12:21.156Z,1.70
2018-12-24T02:15:10.894Z,1.80
2018-12-24T02:18:00.579Z,2.10
2018-12-24T02:20:50.515Z,1.80
2018-12-24T02:23:40.752Z,1.80
2018-12-24T02:26:30.506Z,2.03
2018-12-24T02:29:20.997Z,1.80
2018-12-24T02:32:10.710Z,1.90
2018-12-24T02:35:00.784Z,1.90
2018-12-24T02:37:50.528Z,1.90
2018-12-24T02:40:41.355Z,1.80
2018-12-24T02:43:30.812Z,1.83
2018-12-24T02:46:21.235Z,1.80
2018-12-24T02:49:11.321Z,2.00
2018-12-24T02:52:00.792Z,2.00
2018-12-24T02:54:50.791Z,1.80
2018-12-24T02:57:40.870Z,1.80
2018-12-24T03:00:30.826Z,1.97
2018-12-24T03:03:20.556Z,2.00
2018-12-24T03:06:10.427Z,2.00
2018-12-24T03:09:00.150Z,1.80
2018-12-24T03:11:50.469Z,1.70
2018-12-24T03:14:40.687Z,2.00
2018-12-24T03:17:30.889Z,1.90
2018-12-24T03:20:20.423Z,1.90
2018-12-24T03:23:11.215Z,2.10
2018-12-24T03:26:00.932Z,1.90
2018-12-24T03:28:50.900Z,1.90
2018-12-24T03:31:40.602Z,2.07
2018-12-24T03:34:31.814Z,2.00
2018-12-24T03:37:22.034Z,1.90
2018-12-24T03:40:11.855Z,2.00
2018-12-24T03:43:12.486Z,2.07
2018-12-24T03:45:56.250Z,2.40
2018-12-24T03:48:45.984Z,2.60
2018-12-24T03:51:36.043Z,2.80
2018-12-24T03:54:25.514Z,3.37
2018-12-24T03:57:16.384Z,3.43
2018-12-24T04:00:07.151Z,3.80
2018-12-24T04:02:56.589Z,3.57
2018-12-24T04:05:46.063Z,3.60
2018-12-24T04:08:36.315Z,4.00
2018-12-24T04:11:26.026Z,3.70
2018-12-24T04:14:15.765Z,3.40
2018-12-24T04:17:05.218Z,3.70
2018-12-24T04:19:55.419Z,3.50
2018-12-24T04:22:45.389Z,4.03
2018-12-24T04:25:40.436Z,3.90
2018-12-24T04:28:30.238Z,3.53
2018-12-24T04:31:19.897Z,3.90
2018-12-24T04:34:09.601Z,3.93
2018-12-24T04:36:59.315Z,3.90
2018-12-24T04:39:49.085Z,4.00
2018-12-24T04:42:38.527Z,3.90
2018-12-24T04:45:27.997Z,4.00
2018-12-24T04:48:17.948Z,3.60
2018-12-24T04:51:08.374Z,3.50
2018-12-24T04:53:57.822Z,3.70
2018-12-24T04:56:47.284Z,3.63
2018-12-24T04:59:36.744Z,3.60
2018-12-24T05:02:26.203Z,3.80
2018-12-24T05:05:17.098Z,3.70
2018-12-24T05:08:06.582Z,3.90
2018-12-24T05:10:56.397Z,4.33
2018-12-24T05:13:46.259Z,3.60
2018-12-24T05:16:35.729Z,3.70
2018-12-24T05:19:25.699Z,3.50
2018-12-24T05:22:15.978Z,3.60
2018-12-24T05:25:05.571Z,3.70
2018-12-24T05:27:55.256Z,3.50
2018-12-24T05:30:44.983Z,3.40
2018-12-24T05:33:34.665Z,3.70
2018-12-24T05:36:24.664Z,3.90
2018-12-24T05:39:14.116Z,4.27
2018-12-24T05:42:03.572Z,4.00
2018-12-24T05:44:53.257Z,3.80
2018-12-24T05:47:42.715Z,3.83
2018-12-24T05:50:32.407Z,3.70
2018-12-24T05:53:22.087Z,3.70
2018-12-24T05:56:11.809Z,3.60
2018-12-24T05:59:01.535Z,3.60
2018-12-24T06:01:51.718Z,3.80
2018-12-24T06:04:41.396Z,3.90
2018-12-24T06:07:31.457Z,3.90
2018-12-24T06:10:20.886Z,3.90
2018-12-24T06:13:10.578Z,3.80
2018-12-24T06:16:00.849Z,4.10
2018-12-24T06:18:50.294Z,4.10
2018-12-24T06:21:39.992Z,4.30
2018-12-24T06:24:29.796Z,4.10
2018-12-24T06:27:19.254Z,3.70
2018-12-24T06:30:09.761Z,3.90
2018-12-24T06:32:59.461Z,4.13
2018-12-24T06:36:08.776Z,4.00
2018-12-24T06:38:58.681Z,4.00
2018-12-24T06:41:48.479Z,4.20
2018-12-24T06:44:38.249Z,4.23
2018-12-24T06:47:27.964Z,4.40
2018-12-24T06:50:17.669Z,4.23
2018-12-24T06:53:08.141Z,4.10
2018-12-24T06:55:58.083Z,4.30
2018-12-24T06:58:47.565Z,4.20
2018-12-24T07:01:38.102Z,4.30
2018-12-24T07:04:28.213Z,4.10
2018-12-24T07:07:18.130Z,4.50
2018-12-24T07:10:07.744Z,3.90
2018-12-24T07:12:57.948Z,4.10
2018-12-24T07:15:50.509Z,4.13
2018-12-24T07:18:41.009Z,4.33
2018-12-24T07:21:31.291Z,4.10
2018-12-24T07:24:21.708Z,4.20
2018-12-24T07:27:12.068Z,4.10
2018-12-24T07:30:01.910Z,4.23
2018-12-24T07:32:52.208Z,4.27
2018-12-24T07:35:42.168Z,4.50
2018-12-24T07:38:32.973Z,4.97
2018-12-24T07:41:24.013Z,4.30
2018-12-24T07:44:13.805Z,4.43
2018-12-24T07:47:22.854Z,4.30
2018-12-24T07:50:12.310Z,4.20
2018-12-24T07:53:02.598Z,4.40
2018-12-24T07:55:52.344Z,4.60
2018-12-24T07:58:42.358Z,4.30
2018-12-24T08:01:33.105Z,4.57
2018-12-24T08:04:21.891Z,4.20
2018-12-24T08:07:32.627Z,5.07
2018-12-24T08:10:41.700Z,4.50
2018-12-24T08:13:31.170Z,4.60
2018-12-24T08:16:20.937Z,4.70
2018-12-24T08:19:26.005Z,4.80
2018-12-24T08:22:02.596Z,4.80
2018-12-24T08:24:52.632Z,4.90
2018-12-24T08:27:42.080Z,4.70
2018-12-24T08:30:31.809Z,5.03
2018-12-24T08:33:21.579Z,4.80
2018-12-24T08:36:11.076Z,4.70
2018-12-24T08:39:01.000Z,4.70
2018-12-24T08:41:50.692Z,4.90
2018-12-24T08:44:41.855Z,4.80
2018-12-24T08:47:31.862Z,5.10
2018-12-24T08:50:21.568Z,4.93
2018-12-24T08:53:12.847Z,5.07
2018-12-24T08:56:04.128Z,5.43
2018-12-24T08:58:53.707Z,5.30
2018-12-24T09:01:43.168Z,5.50
2018-12-24T09:05:15.234Z,5.30
2018-12-24T09:08:05.029Z,5.40
2018-12-24T09:10:54.553Z,5.40
2018-12-24T09:13:44.257Z,5.80
2018-12-24T09:16:34.011Z,5.80
2018-12-24T09:19:23.692Z,5.80
2018-12-24T09:22:14.542Z,5.83
2018-12-24T09:25:04.697Z,5.23
2018-12-24T09:27:55.623Z,5.43
2018-12-24T09:30:51.870Z,5.20
2018-12-24T09:33:44.746Z,5.20
2018-12-24T09:36:34.699Z,5.20
2018-12-24T09:39:24.127Z,5.40
2018-12-24T09:42:28.177Z,5.40
2018-12-24T09:45:05.806Z,5.67
2018-12-24T09:47:55.877Z,5.40
2018-12-24T09:51:05.315Z,5.37
2018-12-24T09:53:55.880Z,5.97
2018-12-24T09:56:45.602Z,5.10
2018-12-24T09:59:35.942Z,5.33
2018-12-24T10:02:31.852Z,6.53
2018-12-24T10:05:23.493Z,6.03
2018-12-24T10:08:16.720Z,5.97
2018-12-24T10:11:06.455Z,6.00
2018-12-24T10:13:56.947Z,5.50
2018-12-24T10:16:46.909Z,5.57
2018-12-24T10:19:36.608Z,5.40
2018-12-24T10:22:25.385Z,6.93
2018-12-24T10:25:15.125Z,6.00
2018-12-24T10:28:24.014Z,6.70
2018-12-24T10:31:14.546Z,6.00
2018-12-24T10:34:04.784Z,6.20
2018-12-24T10:36:54.481Z,5.70
2018-12-24T10:39:44.389Z,6.03
2018-12-24T10:42:34.348Z,5.80
2018-12-24T10:45:24.293Z,6.00
2018-12-24T10:51:29.928Z,5.70
2018-12-24T10:54:19.835Z,5.20
2018-12-24T10:57:09.497Z,5.70
2018-12-24T10:59:59.615Z,5.73
2018-12-24T11:02:49.752Z,5.53
2018-12-24T11:05:40.417Z,5.63
2018-12-24T11:08:31.400Z,5.23
2018-12-24T11:11:21.236Z,5.37
2018-12-24T11:14:11.818Z,5.37
2018-12-24T11:17:02.049Z,4.80
2018-12-24T11:19:53.717Z,5.17
2018-12-24T11:22:44.063Z,5.13
2018-12-24T11:25:34.307Z,5.23
2018-12-24T11:28:23.790Z,5.43
2018-12-24T11:31:13.624Z,5.10
2018-12-24T11:34:03.342Z,5.20
2018-12-24T11:36:53.532Z,5.37
2018-12-24T11:39:43.787Z,5.17
2018-12-24T11:42:33.711Z,5.10
2018-12-24T11:45:23.429Z,5.90
2018-12-24T11:48:14.548Z,5.20
2018-12-24T11:51:04.369Z,4.70
2018-12-24T11:53:54.653Z,4.93
2018-12-24T11:56:44.608Z,5.43
2018-12-24T11:59:34.074Z,5.20
2018-12-24T12:02:24.327Z,4.70
2018-12-24T12:05:13.784Z,4.90
2018-12-24T12:08:03.552Z,4.50
2018-12-24T12:11:15.991Z,4.63
2018-12-24T12:14:06.101Z,4.40
2018-12-24T12:16:55.903Z,4.50
2018-12-24T12:19:45.673Z,4.80
2018-12-24T12:22:54.602Z,4.70
2018-12-24T12:25:45.181Z,4.67
2018-12-24T12:28:34.899Z,4.50
2018-12-24T12:31:25.235Z,4.87
2018-12-24T12:34:15.028Z,4.90
2018-12-24T12:37:04.524Z,4.80
2018-12-24T12:39:53.979Z,4.73
2018-12-24T12:42:44.240Z,4.83
2018-12-24T12:45:34.377Z,5.10
2018-12-24T12:48:25.587Z,5.27
2018-12-24T12:51:16.315Z,4.57
2018-12-24T12:54:06.706Z,4.60
2018-12-24T12:56:56.439Z,4.70
2018-12-24T12:59:46.640Z,4.80
2018-12-24T13:02:36.381Z,4.60
2018-12-24T13:05:26.093Z,4.80
2018-12-24T13:08:15.837Z,4.67
2018-12-24T13:11:05.534Z,4.60
2018-12-24T13:13:55.253Z,4.50
2018-12-24T13:16:44.717Z,4.20
2018-12-24T13:19:34.514Z,4.30
2018-12-24T13:22:24.473Z,5.20
2018-12-24T13:25:15.716Z,6.97
2018-12-24T13:28:05.674Z,7.87
2018-12-24T13:30:55.131Z,7.27
2018-12-24T13:33:44.603Z,9.97
2018-12-24T13:36:34.602Z,7.30
2018-12-24T13:39:24.100Z,4.60
2018-12-24T13:42:13.771Z,4.70
2018-12-24T13:45:03.677Z,4.40
2018-12-24T13:47:53.288Z,9.07
2018-12-24T13:50:43.054Z,29.70
2018-12-24T13:53:32.756Z,15.80
2018-12-24T13:56:22.766Z,5.83
2018-12-24T13:59:12.446Z,4.97
2018-12-24T14:02:02.183Z,4.30
2018-12-24T14:04:52.485Z,4.33
2018-12-24T14:07:43.060Z,4.20
2018-12-24T14:10:32.534Z,4.43
2018-12-24T14:13:22.523Z,4.47
2018-12-24T14:16:16.742Z,4.87
2018-12-24T14:19:04.941Z,4.40
2018-12-24T14:21:54.912Z,4.50
2018-12-24T14:24:46.483Z,4.40
2018-12-24T14:27:37.028Z,4.40
2018-12-24T14:30:26.486Z,4.53
2018-12-24T14:33:16.225Z,4.80
2018-12-24T14:36:05.932Z,4.60
2018-12-24T14:38:55.679Z,4.37
2018-12-24T14:41:45.624Z,4.53
2018-12-24T14:44:35.587Z,4.83
2018-12-24T14:47:26.095Z,4.60
2018-12-24T14:50:35.855Z,4.80
2018-12-24T14:53:25.811Z,4.80
2018-12-24T14:56:15.270Z,5.40
2018-12-24T14:59:05.564Z,5.10
2018-12-24T15:01:55.512Z,5.40
2018-12-24T15:04:45.449Z,5.37
2018-12-24T15:07:34.905Z,5.53
2018-12-24T15:10:24.845Z,5.67
2018-12-24T15:13:14.544Z,6.17
2018-12-24T15:16:04.314Z,6.37
2018-12-24T15:18:54.548Z,6.27
2018-12-24T15:21:44.013Z,6.50
2018-12-24T15:24:34.605Z,6.43
2018-12-24T15:27:24.077Z,6.70
2018-12-24T15:30:14.050Z,6.63
2018-12-24T15:33:03.754Z,6.23
2018-12-24T15:35:54.318Z,6.60
2018-12-24T15:38:44.259Z,6.03
2018-12-24T15:41:34.668Z,6.20
2018-12-24T15:44:24.354Z,6.50
2018-12-24T15:47:14.386Z,6.30
2018-12-24T15:50:04.153Z,6.10
2018-12-24T15:52:54.702Z,6.13
2018-12-24T15:55:44.161Z,6.23
2018-12-24T15:58:33.629Z,6.37
2018-12-24T16:01:23.868Z,6.30
2018-12-24T16:04:13.880Z,7.50
2018-12-24T16:07:04.043Z,8.03
2018-12-24T16:10:12.729Z,6.47
2018-12-24T16:13:02.199Z,5.80
2018-12-24T16:16:11.645Z,5.77
2018-12-24T16:19:20.801Z,6.20
2018-12-24T16:22:10.540Z,6.37
2018-12-24T16:25:00.358Z,6.20
2018-12-24T16:27:50.397Z,5.33
2018-12-24T16:30:59.064Z,5.00
2018-12-24T16:33:48.770Z,5.50
2018-12-24T16:36:38.240Z,5.60
2018-12-24T16:39:28.225Z,5.70
2018-12-24T16:42:17.944Z,5.63
2018-12-24T16:45:07.815Z,5.50
2018-12-24T16:47:57.538Z,6.00
2018-12-24T16:50:47.046Z,5.80
2018-12-24T16:53:40.546Z,5.80
2018-12-24T16:56:28.673Z,5.80
2018-12-24T16:59:18.389Z,6.00
2018-12-24T17:02:07.918Z,5.87
2018-12-24T17:04:57.437Z,5.70
2018-12-24T17:07:46.911Z,5.93
2018-12-24T17:10:36.372Z,5.80
2018-12-24T17:13:45.361Z,6.17
2018-12-24T17:16:35.587Z,6.37
2018-12-24T17:19:25.033Z,6.80
2018-12-24T17:22:14.500Z,7.20
2018-12-24T17:25:04.290Z,6.20
2018-12-24T17:27:53.755Z,7.23
2018-12-24T17:30:43.481Z,6.67
2018-12-24T17:33:33.240Z,6.93
2018-12-24T17:36:23.740Z,9.10
2018-12-24T17:39:15.366Z,7.67
2018-12-24T17:42:05.169Z,7.67
2018-12-24T17:44:54.870Z,6.50
2018-12-24T17:47:45.000Z,10.70
2018-12-24T17:50:34.477Z,9.00
2018-12-24T17:53:24.238Z,7.20
2018-12-24T17:56:14.183Z,7.03
2018-12-24T17:59:04.222Z,6.73
2018-12-24T18:01:54.060Z,6.43
2018-12-24T18:04:43.774Z,6.57
2018-12-24T18:07:33.504Z,6.20
2018-12-24T18:10:42.428Z,6.57
2018-12-24T18:13:51.403Z,7.20
2018-12-24T18:16:41.538Z,6.60
2018-12-24T18:19:31.295Z,6.30
2018-12-24T18:22:40.500Z,6.30
2018-12-24T18:25:30.224Z,6.50
2018-12-24T18:28:19.927Z,6.80
2018-12-24T18:31:10.136Z,6.23
2018-12-24T18:33:59.611Z,6.73
2018-12-24T18:36:50.024Z,6.90
2018-12-24T18:39:39.492Z,6.80
2018-12-24T18:42:30.053Z,7.10
2018-12-24T18:45:19.575Z,6.37
2018-12-24T18:48:09.310Z,6.80
2018-12-24T18:50:59.036Z,7.23
2018-12-24T18:53:49.315Z,6.77
2018-12-24T18:56:39.666Z,6.57
2018-12-24T18:59:29.137Z,6.70
2018-12-24T19:02:19.102Z,6.80
2018-12-24T19:05:09.302Z,6.90
2018-12-24T19:07:59.018Z,6.67
2018-12-24T19:10:48.747Z,11.67
2018-12-24T19:13:38.222Z,9.40
2018-12-24T19:19:38.597Z,7.77
2018-12-24T19:22:28.338Z,7.50
2018-12-24T19:25:17.806Z,7.20
2018-12-24T19:28:07.772Z,8.20
2018-12-24T19:30:57.753Z,7.90
2018-12-24T19:33:47.928Z,8.13
2018-12-24T19:36:37.391Z,8.10
2018-12-24T19:39:27.436Z,7.73
2018-12-24T19:42:16.875Z,8.03
2018-12-24T19:45:06.877Z,7.80
2018-12-24T19:47:56.859Z,8.47
2018-12-24T19:50:46.550Z,8.20
2018-12-24T19:53:35.999Z,8.50
2018-12-24T19:56:26.039Z,9.20
2018-12-24T19:59:15.518Z,9.20
2018-12-24T20:02:05.284Z,8.73
2018-12-24T20:04:55.691Z,10.23
2018-12-24T20:07:45.455Z,9.40
2018-12-24T20:10:35.430Z,9.30
2018-12-24T20:13:24.928Z,10.17
2018-12-24T20:16:14.386Z,9.73
2018-12-24T20:19:04.081Z,9.70
2018-12-24T20:21:54.274Z,9.60
2018-12-24T20:24:44.166Z,9.90
2018-12-24T20:27:33.887Z,9.37
2018-12-24T20:30:23.862Z,9.20
2018-12-24T20:33:13.840Z,9.70
2018-12-24T20:36:03.335Z,10.07
2018-12-24T20:38:52.807Z,9.83
2018-12-24T20:41:42.756Z,10.53
2018-12-24T20:44:32.858Z,10.53
2018-12-24T20:47:22.967Z,10.00
2018-12-24T20:50:12.841Z,9.47
2018-12-24T20:53:02.781Z,9.83
2018-12-24T20:55:52.508Z,9.50
2018-12-24T20:58:42.247Z,8.67
2018-12-24T21:01:31.790Z,9.33
2018-12-24T21:04:40.717Z,9.37
2018-12-24T21:07:30.412Z,9.20
2018-12-24T21:10:20.232Z,8.73
2018-12-24T21:13:11.531Z,9.30
2018-12-24T21:16:00.977Z,9.27
2018-12-24T21:18:50.431Z,9.50
2018-12-24T21:21:40.755Z,9.70
2018-12-24T21:24:30.310Z,9.57
2018-12-24T21:27:20.022Z,8.67
2018-12-24T21:30:09.833Z,9.20
2018-12-24T21:32:59.283Z,9.07
2018-12-24T21:35:48.751Z,9.67
2018-12-24T21:38:38.224Z,9.43
2018-12-24T21:41:47.630Z,10.23
2018-12-24T21:44:37.899Z,10.37
2018-12-24T21:47:28.510Z,9.93
2018-12-24T21:50:37.199Z,10.87
2018-12-24T21:53:27.432Z,11.07
2018-12-24T21:56:17.612Z,11.30
2018-12-24T21:59:07.335Z,10.43
2018-12-24T22:02:16.758Z,11.47
2018-12-24T22:05:06.395Z,11.80
2018-12-24T22:07:56.659Z,11.63
2018-12-24T22:10:46.127Z,12.17
2018-12-24T22:13:36.358Z,11.63
2018-12-24T22:16:25.841Z,11.50
2018-12-24T22:19:16.018Z,12.07
2018-12-24T22:22:05.854Z,11.90
2018-12-24T22:24:55.385Z,11.63
2018-12-24T22:27:45.432Z,11.50
2018-12-24T22:30:54.122Z,11.07
2018-12-24T22:33:44.104Z,12.00
2018-12-24T22:36:33.575Z,12.60
2018-12-24T22:39:23.318Z,12.97
2018-12-24T22:42:13.028Z,11.87
2018-12-24T22:45:02.809Z,12.50
2018-12-24T22:47:52.804Z,12.53
2018-12-24T22:50:42.852Z,13.27
2018-12-24T22:53:32.814Z,13.20
2018-12-24T22:56:22.646Z,12.60
2018-12-24T22:59:12.399Z,13.70
2018-12-24T23:02:21.413Z,13.43
2018-12-24T23:05:11.202Z,13.60
2018-12-24T23:08:00.772Z,13.63
2018-12-24T23:11:09.707Z,14.10
2018-12-24T23:13:59.146Z,13.60
2018-12-24T23:16:48.904Z,13.57
2018-12-24T23:19:38.647Z,13.87
2018-12-24T23:22:28.366Z,13.37
2018-12-24T23:25:17.830Z,14.13
2018-12-24T23:28:07.315Z,14.23
2018-12-24T23:30:56.784Z,14.40
2018-12-24T23:33:46.535Z,13.80
2018-12-24T23:36:36.509Z,13.53
2018-12-24T23:39:25.966Z,13.93
2018-12-24T23:42:16.433Z,13.03
2018-12-24T23:45:05.983Z,13.50
2018-12-24T23:47:55.936Z,13.60
2018-12-24T23:50:45.403Z,13.67
2018-12-24T23:53:54.887Z,14.40
2018-12-24T23:56:44.419Z,13.47
2018-12-24T23:59:34.130Z,12.80
